.
WxDataArchive / Data Records for 2011-10-22
2011-10-21 October 2011 2011-10-23

Data Records for Saturday, 22 October 2011

Time	Temp	Chill	HIndex	Humid	Dewpt	 Wind 	HiWind	WindDir	Rain 	Barom 
-----	----	-----	------	-----	-----	------	------	-------	-----	----- 
00:00	35.2	35.2	35.2	92	33.1	0	0	---	0.00	30.106 
00:05	35.0	35.0	35.0	92	32.9	0	0	---	0.00	30.106 
00:10	34.9	34.9	34.9	93	33.1	0	0	---	0.00	30.106 
00:15	34.7	34.7	34.7	93	32.9	0	0	---	0.00	30.103 
00:20	34.6	34.6	34.6	93	32.8	0	0	---	0.00	30.103 
00:25	34.4	34.4	34.4	93	32.6	0	0	---	0.00	30.103 
00:30	34.3	34.3	34.3	93	32.5	0	0	---	0.00	30.103 
00:35	34.3	34.3	34.3	93	32.5	0	0	---	0.00	30.103 
00:40	34.1	34.1	34.1	93	32.3	0	0	---	0.00	30.103 
00:45	34.0	34.0	34.0	93	32.2	0	0	---	0.00	30.102 
00:50	33.8	33.8	33.8	93	32.0	0	0	---	0.00	30.102 
00:55	33.8	33.8	33.8	93	32.0	0	0	---	0.00	30.102 
01:00	33.7	33.7	33.7	93	31.9	0	0	---	0.00	30.101 
01:05	33.5	33.5	33.5	93	31.7	0	0	---	0.00	30.101 
01:10	33.5	33.5	33.5	93	31.7	0	0	---	0.00	30.101 
01:15	33.5	33.5	33.5	93	31.7	0	0	---	0.00	30.103 
01:20	33.4	33.4	33.4	93	31.6	0	0	---	0.00	30.103 
01:25	33.4	33.4	33.4	93	31.6	0	0	---	0.00	30.103 
01:30	33.2	33.2	33.2	93	31.4	0	0	---	0.00	30.104 
01:35	33.1	33.1	33.1	93	31.3	0	0	---	0.00	30.104 
01:40	33.1	33.1	33.1	93	31.3	0	0	---	0.00	30.104 
01:45	32.9	32.9	32.9	93	31.1	0	0	---	0.00	30.105 
01:50	32.9	32.9	32.9	93	31.1	0	0	---	0.00	30.105 
01:55	32.8	32.8	32.8	93	31.0	0	0	---	0.00	30.105 
02:00	32.8	32.8	32.8	93	31.0	0	0	---	0.00	30.106 
02:05	32.7	32.7	32.7	93	30.9	0	0	---	0.00	30.106 
02:10	32.5	32.5	32.5	93	30.7	0	0	---	0.00	30.106 
02:15	32.5	32.5	32.5	93	30.7	0	0	---	0.00	30.103 
02:20	32.4	32.4	32.4	93	30.6	0	0	---	0.00	30.103 
02:25	32.2	32.2	32.2	93	30.4	0	0	---	0.00	30.103 
02:30	32.2	32.2	32.2	93	30.4	0	0	---	0.00	30.107 
02:35	32.2	32.2	32.2	93	30.4	0	0	---	0.00	30.107 
02:40	32.1	32.1	32.1	93	30.3	0	0	---	0.00	30.107 
02:45	32.1	32.1	32.1	94	30.6	0	0	---	0.00	30.107 
02:50	31.9	31.9	31.9	94	30.4	0	0	---	0.00	30.107 
02:55	31.9	31.9	31.9	94	30.4	0	0	---	0.00	30.107 
03:00	31.8	31.8	31.8	94	30.3	0	0	---	0.00	30.107 
03:05	31.8	31.8	31.8	94	30.3	0	0	---	0.00	30.107 
03:10	31.8	31.8	31.8	94	30.3	0	0	---	0.00	30.107 
03:15	31.8	31.8	31.8	94	30.3	0	0	---	0.00	30.107 
03:20	31.8	31.8	31.8	94	30.3	0	0	---	0.00	30.107 
03:25	31.6	31.6	31.6	94	30.1	0	0	---	0.00	30.107 
03:30	31.6	31.6	31.6	94	30.1	0	0	---	0.00	30.104 
03:35	31.6	31.6	31.6	94	30.1	0	0	---	0.00	30.104 
03:40	31.6	31.6	31.6	94	30.1	0	0	---	0.00	30.104 
03:45	31.5	31.5	31.5	94	30.0	0	0	---	0.00	30.103 
03:50	31.5	31.5	31.5	94	30.0	0	0	---	0.00	30.103 
03:55	31.5	31.5	31.5	94	30.0	0	0	---	0.00	30.103 
04:00	31.3	31.3	31.3	94	29.8	0	0	---	0.00	30.104 
04:05	31.3	31.3	31.3	94	29.8	0	0	---	0.00	30.104 
04:10	31.3	31.3	31.3	94	29.8	0	0	---	0.00	30.104 
04:15	31.3	31.3	31.3	94	29.8	0	0	---	0.00	30.103 
04:20	31.3	31.3	31.3	94	29.8	0	0	---	0.00	30.103 
04:25	31.3	31.3	31.3	94	29.8	0	0	---	0.00	30.103 
04:30	31.3	31.3	31.3	94	29.8	0	0	---	0.00	30.102 
04:35	31.3	31.3	31.3	94	29.8	0	0	---	0.00	30.102 
04:40	31.2	31.2	31.2	94	29.7	0	0	---	0.00	30.102 
04:45	31.2	31.2	31.2	94	29.7	0	0	---	0.00	30.103 
04:50	31.2	31.2	31.2	94	29.7	0	0	---	0.00	30.103 
04:55	31.2	31.2	31.2	94	29.7	0	0	---	0.00	30.103 
05:00	31.0	31.0	31.0	94	29.5	0	0	---	0.00	30.104 
05:05	31.0	31.0	31.0	94	29.5	0	0	---	0.00	30.104 
05:10	31.0	31.0	31.0	94	29.5	0	0	---	0.00	30.104 
05:15	31.0	31.0	31.0	94	29.5	0	0	---	0.00	30.105 
05:20	31.0	31.0	31.0	94	29.5	0	0	---	0.00	30.105 
05:25	31.0	31.0	31.0	94	29.5	0	0	---	0.00	30.105 
05:30	31.0	31.0	31.0	94	29.5	0	0	---	0.00	30.107 
05:35	30.9	30.9	30.9	94	29.4	0	0	---	0.00	30.107 
05:40	30.9	30.9	30.9	94	29.4	0	0	---	0.00	30.107 
05:45	30.9	30.9	30.9	94	29.4	0	0	---	0.00	30.107 
05:50	30.9	30.9	30.9	94	29.4	0	0	---	0.00	30.107 
05:55	30.7	30.7	30.7	94	29.2	0	0	---	0.00	30.107 
06:00	30.7	30.7	30.7	94	29.2	0	0	---	0.00	30.106 
06:05	30.7	30.7	30.7	94	29.2	0	0	---	0.00	30.106 
06:10	30.6	30.6	30.6	94	29.1	0	0	---	0.00	30.106 
06:15	30.6	30.6	30.6	94	29.1	0	0	---	0.00	30.115 
06:20	30.6	30.6	30.6	94	29.1	0	0	---	0.00	30.115 
06:25	30.6	30.6	30.6	94	29.1	0	0	---	0.00	30.115 
06:30	30.6	30.6	30.6	94	29.1	0	0	---	0.00	30.120 
06:35	30.6	30.6	30.6	94	29.1	0	0	---	0.00	30.120 
06:40	30.6	30.6	30.6	94	29.1	0	0	---	0.00	30.120 
06:45	30.6	30.6	30.6	94	29.1	0	0	---	0.00	30.120 
06:50	30.6	30.6	30.6	95	29.3	0	0	---	0.00	30.120 
06:55	30.6	30.6	30.6	95	29.3	0	0	---	0.00	30.120 
07:00	30.7	30.7	30.7	95	29.4	0	0	---	0.00	30.121 
07:05	30.6	30.6	30.6	95	29.3	0	0	---	0.00	30.121 
07:10	30.6	30.6	30.6	95	29.3	0	0	---	0.00	30.121 
07:15	30.6	30.6	30.6	95	29.3	0	0	---	0.00	30.124 
07:20	30.7	30.7	30.7	95	29.4	0	0	---	0.00	30.124 
07:25	30.7	30.7	30.7	95	29.4	0	0	---	0.00	30.124 
07:30	30.7	30.7	30.7	95	29.4	0	0	---	0.00	30.124 
07:35	30.7	30.7	30.7	95	29.4	0	0	---	0.00	30.124 
07:40	30.7	30.7	30.7	95	29.4	0	0	---	0.00	30.124 
07:45	30.9	30.9	30.9	95	29.6	0	0	---	0.00	30.124 
07:50	30.9	30.9	30.9	95	29.6	0	0	---	0.00	30.124 
07:55	30.9	30.9	30.9	95	29.6	0	0	---	0.00	30.124 
08:00	30.9	30.9	30.9	95	29.6	0	0	---	0.00	30.125 
08:05	30.9	30.9	30.9	95	29.6	0	0	---	0.00	30.125 
08:10	31.0	31.0	31.0	95	29.7	0	0	---	0.00	30.125 
08:15	31.0	31.0	31.0	95	29.7	0	0	---	0.00	30.128 
08:20	31.0	31.0	31.0	95	29.7	0	0	---	0.00	30.128 
08:25	31.2	31.2	31.2	95	29.9	0	0	---	0.00	30.128 
08:30	31.2	31.2	31.2	95	29.9	0	0	---	0.00	30.129 
08:35	31.2	31.2	31.2	95	29.9	0	0	---	0.00	30.129 
08:40	31.3	31.3	31.3	95	30.0	0	0	---	0.00	30.129 
08:45	31.5	31.5	31.5	95	30.2	0	0	---	0.00	30.132 
08:50	31.8	31.8	31.8	95	30.5	0	0	---	0.00	30.132 
08:55	32.1	32.1	32.1	95	30.8	0	0	---	0.00	30.132 
09:00	32.5	32.5	32.5	95	31.2	0	0	---	0.00	30.134 
09:05	33.1	33.1	33.1	96	32.1	0	0	---	0.00	30.134 
09:10	33.8	33.8	33.8	96	32.8	0	1	315	0.00	30.134 
09:15	34.7	34.7	34.7	96	33.7	0	0	---	0.00	30.136 
09:20	35.3	35.3	35.3	96	34.3	0	0	---	0.00	30.136 
09:25	36.0	36.0	36.0	96	35.0	0	0	---	0.01	30.136 
09:30	36.6	36.6	36.6	96	35.6	0	1	315	0.00	30.134 
09:35	37.3	37.3	37.3	96	36.3	0	0	---	0.00	30.134 
09:40	37.9	37.9	37.9	96	36.9	0	1	315	0.00	30.134 
09:45	38.5	38.5	38.5	96	37.5	0	1	315	0.00	30.133 
09:50	38.9	38.9	38.9	96	37.9	0	1	315	0.00	30.133 
09:55	39.3	39.3	39.3	96	38.3	0	1	315	0.00	30.133 
10:00	39.8	39.8	39.8	96	38.8	0	1	315	0.00	30.132 
10:05	40.5	40.5	40.5	96	39.5	0	1	315	0.00	30.132 
10:10	41.2	41.2	41.2	96	40.1	0	2	315	0.00	30.132 
10:15	42.1	42.1	42.1	96	41.0	0	2	315	0.00	30.134 
10:20	42.9	42.9	42.9	95	41.6	0	2	315	0.00	30.134 
10:25	43.6	43.6	43.6	94	42.0	0	2	315	0.00	30.134 
10:30	44.3	44.3	44.3	92	42.1	0	1	315	0.00	30.130 
10:35	45.1	45.1	45.1	90	42.3	0	2	315	0.00	30.130 
10:40	45.5	45.5	45.5	84	41.0	1	3	315	0.00	30.130 
10:45	46.1	46.1	46.1	79	40.0	1	3	315	0.00	30.130 
10:50	46.7	46.7	46.7	74	38.9	1	3	315	0.00	30.130 
10:55	47.3	47.3	47.3	71	38.4	1	3	315	0.00	30.130 
11:00	47.9	47.9	47.9	68	37.9	1	3	315	0.00	30.129 
11:05	48.3	48.3	48.3	67	37.9	1	2	315	0.00	30.129 
11:10	49.1	49.1	49.1	65	37.8	1	2	315	0.00	30.129 
11:15	49.4	49.4	49.4	62	36.9	1	3	315	0.00	30.129 
11:20	49.6	49.6	49.6	62	37.1	0	1	315	0.00	30.129 
11:25	49.9	49.9	49.9	62	37.4	0	2	315	0.00	30.129 
11:30	50.1	50.1	50.1	62	37.6	0	2	315	0.00	30.129 
11:35	50.2	50.2	50.2	61	37.3	1	2	315	0.00	30.129 
11:40	50.4	50.4	50.4	60	37.0	1	2	315	0.00	30.129 
11:45	50.7	50.7	50.7	58	36.5	1	3	315	0.00	30.125 
11:50	51.0	51.0	51.0	58	36.7	1	2	315	0.00	30.125 
11:55	51.3	51.3	51.3	57	36.6	1	4	315	0.00	30.125 
12:00	51.3	51.3	51.3	57	36.6	2	4	315	0.00	30.122 
12:05	51.4	51.4	51.4	57	36.7	1	3	315	0.00	30.122 
12:10	51.7	51.7	51.7	57	37.0	1	2	315	0.00	30.122 
12:15	52.2	52.2	52.2	57	37.4	0	2	315	0.00	30.120 
12:20	52.6	52.6	52.6	55	36.9	1	2	315	0.00	30.120 
12:25	52.9	52.9	52.9	57	38.1	1	2	315	0.00	30.120 
12:30	53.3	53.3	53.3	52	36.1	1	3	315	0.00	30.119 
12:35	53.6	53.6	53.6	52	36.4	2	4	248	0.00	30.119 
12:40	53.9	53.9	53.9	54	37.6	1	3	248	0.00	30.119 
12:45	54.4	54.4	54.4	52	37.1	1	5	248	0.00	30.113 
12:50	54.7	54.7	54.7	52	37.4	1	3	248	0.00	30.113 
12:55	55.0	55.0	55.0	52	37.7	1	5	270	0.00	30.113 
13:00	55.1	55.1	55.1	51	37.3	0	2	270	0.00	30.109 
13:05	55.1	55.1	55.1	50	36.8	1	3	270	0.00	30.109 
13:10	55.1	55.1	55.1	50	36.8	1	4	270	0.00	30.109 
13:15	55.3	55.3	55.3	52	38.0	1	4	270	0.00	30.103 
13:20	55.4	55.4	55.4	50	37.1	1	4	270	0.00	30.103 
13:25	55.6	55.6	55.6	50	37.3	1	3	270	0.00	30.103 
13:30	55.7	55.7	55.7	50	37.3	1	4	248	0.00	30.097 
13:35	56.0	56.0	56.0	49	37.1	0	2	248	0.00	30.097 
13:40	56.2	56.2	56.2	49	37.3	1	4	248	0.00	30.097 
13:45	56.2	56.2	56.2	47	36.2	1	3	248	0.00	30.095 
13:50	56.3	56.3	56.3	47	36.3	1	4	248	0.00	30.095 
13:55	56.3	56.3	56.3	45	35.2	2	4	270	0.00	30.095 
14:00	56.5	56.5	56.5	46	36.0	1	4	270	0.00	30.092 
14:05	56.7	56.7	56.7	46	36.2	1	3	270	0.00	30.092 
14:10	56.9	56.9	56.9	43	34.6	1	4	270	0.00	30.092 
14:15	56.9	56.9	56.9	43	34.6	0	3	270	0.00	30.091 
14:20	57.0	57.0	57.0	44	35.3	1	5	292	0.00	30.091 
14:25	57.0	57.0	57.0	43	34.7	1	4	292	0.00	30.091 
14:30	57.2	57.2	57.2	45	36.1	1	4	292	0.00	30.085 
14:35	57.5	57.5	57.5	43	35.2	1	3	270	0.00	30.085 
14:40	58.0	58.0	58.0	44	36.2	1	3	270	0.00	30.085 
14:45	58.0	58.0	58.0	43	35.6	1	4	315	0.00	30.081 
14:50	58.0	58.0	58.0	44	36.2	0	2	315	0.00	30.081 
14:55	58.0	58.0	58.0	43	35.6	0	4	315	0.00	30.081 
15:00	58.3	58.3	58.3	42	35.3	1	4	248	0.00	30.079 
15:05	58.1	58.1	58.1	43	35.7	0	3	248	0.00	30.079 
15:10	58.0	58.0	58.0	41	34.4	0	3	248	0.00	30.079 
15:15	58.0	58.0	58.0	42	35.0	0	3	248	0.00	30.079 
15:20	58.0	58.0	58.0	40	33.8	0	2	248	0.00	30.079 
15:25	57.8	57.8	57.8	41	34.3	0	3	248	0.00	30.079 
15:30	58.0	58.0	58.0	41	34.4	0	2	248	0.00	30.079 
15:35	58.1	58.1	58.1	40	33.9	0	2	248	0.00	30.079 
15:40	58.4	58.4	58.4	42	35.4	0	2	248	0.00	30.079 
15:45	58.6	58.6	58.6	40	34.4	1	3	248	0.00	30.078 
15:50	58.6	58.6	58.6	39	33.7	0	3	248	0.00	30.078 
15:55	58.4	58.4	58.4	40	34.2	1	4	248	0.00	30.078 
16:00	58.3	58.3	58.3	39	33.5	1	4	248	0.00	30.080 
16:05	58.4	58.4	58.4	39	33.5	1	4	270	0.00	30.080 
16:10	58.7	58.7	58.7	39	33.8	1	3	315	0.00	30.080 
16:15	58.7	58.7	58.7	39	33.8	1	3	315	0.00	30.078 
16:20	58.7	58.7	58.7	38	33.2	2	4	315	0.00	30.078 
16:25	58.6	58.6	58.6	39	33.7	1	3	338	0.00	30.078 
16:30	58.7	58.7	58.7	40	34.4	0	2	338	0.00	30.077 
16:35	58.9	58.9	58.9	40	34.6	1	3	338	0.00	30.077 
16:40	58.9	58.9	58.9	39	34.0	0	2	338	0.00	30.077 
16:45	58.6	58.6	58.6	37	32.4	0	2	338	0.00	30.072 
16:50	58.4	58.4	58.4	40	34.2	1	3	338	0.00	30.072 
16:55	58.3	58.3	58.3	39	33.5	0	1	338	0.00	30.072 
17:00	58.1	58.1	58.1	39	33.3	0	1	338	0.00	30.073 
17:05	58.0	58.0	58.0	39	33.2	0	3	338	0.00	30.073 
17:10	57.8	57.8	57.8	41	34.3	0	1	338	0.00	30.073 
17:15	57.8	57.8	57.8	42	34.9	0	1	338	0.00	30.071 
17:20	57.8	57.8	57.8	42	34.9	0	1	338	0.00	30.071 
17:25	58.0	58.0	58.0	42	35.0	0	3	338	0.00	30.071 
17:30	58.0	58.0	58.0	43	35.6	0	1	338	0.00	30.072 
17:35	58.1	58.1	58.1	41	34.5	0	1	338	0.00	30.072 
17:40	58.1	58.1	58.1	40	33.9	0	1	338	0.00	30.072 
17:45	58.3	58.3	58.3	41	34.7	0	1	338	0.00	30.069 
17:50	58.3	58.3	58.3	41	34.7	0	0	---	0.00	30.069 
17:55	58.1	58.1	58.1	41	34.5	0	2	338	0.00	30.069 
18:00	58.0	58.0	58.0	42	35.0	0	1	338	0.00	30.071 
18:05	57.8	57.8	57.8	43	35.5	0	0	---	0.00	30.071 
18:10	57.5	57.5	57.5	44	35.8	0	0	---	0.00	30.071 
18:15	57.0	57.0	57.0	44	35.3	0	0	---	0.00	30.072 
18:20	56.7	56.7	56.7	45	35.6	0	0	---	0.00	30.072 
18:25	56.3	56.3	56.3	45	35.2	0	0	---	0.00	30.072 
18:30	56.0	56.0	56.0	47	36.1	0	0	---	0.00	30.075 
18:35	55.6	55.6	55.6	50	37.3	0	0	---	0.00	30.075 
18:40	55.1	55.1	55.1	50	36.8	0	0	---	0.00	30.075 
18:45	54.5	54.5	54.5	50	36.2	0	0	---	0.00	30.075 
18:50	54.1	54.1	54.1	53	37.4	0	0	---	0.00	30.075 
18:55	53.5	53.5	53.5	54	37.3	0	0	---	0.00	30.075 
19:00	52.9	52.9	52.9	54	36.7	0	0	---	0.00	30.079 
19:05	52.5	52.5	52.5	55	36.8	0	0	---	0.00	30.079 
19:10	51.9	51.9	51.9	58	37.6	0	0	---	0.00	30.079 
19:15	51.3	51.3	51.3	60	37.9	0	0	---	0.00	30.080 
19:20	50.7	50.7	50.7	61	37.7	0	0	---	0.00	30.080 
19:25	50.1	50.1	50.1	62	37.6	0	0	---	0.00	30.080 
19:30	49.6	49.6	49.6	63	37.5	0	0	---	0.00	30.082 
19:35	49.2	49.2	49.2	64	37.5	0	0	---	0.00	30.082 
19:40	48.8	48.8	48.8	65	37.6	0	0	---	0.00	30.082 
19:45	48.3	48.3	48.3	67	37.9	0	0	---	0.00	30.082 
19:50	47.9	47.9	47.9	68	37.9	0	0	---	0.00	30.082 
19:55	47.4	47.4	47.4	69	37.7	0	0	---	0.00	30.082 
20:00	47.0	47.0	47.0	70	37.7	0	0	---	0.00	30.086 
20:05	46.7	46.7	46.7	71	37.8	0	0	---	0.00	30.086 
20:10	46.4	46.4	46.4	72	37.9	0	0	---	0.00	30.086 
20:15	46.1	46.1	46.1	73	37.9	0	0	---	0.00	30.087 
20:20	45.7	45.7	45.7	74	37.9	0	0	---	0.00	30.087 
20:25	45.4	45.4	45.4	75	37.9	0	0	---	0.00	30.087 
20:30	45.1	45.1	45.1	76	38.0	0	0	---	0.00	30.085 
20:35	44.8	44.8	44.8	77	38.0	0	0	---	0.00	30.085 
20:40	44.6	44.6	44.6	77	37.8	0	0	---	0.00	30.085 
20:45	44.3	44.3	44.3	79	38.2	0	0	---	0.00	30.085 
20:50	44.2	44.2	44.2	79	38.1	0	0	---	0.00	30.085 
20:55	43.9	43.9	43.9	79	37.8	0	0	---	0.00	30.085 
21:00	43.6	43.6	43.6	80	37.8	0	0	---	0.00	30.086 
21:05	43.5	43.5	43.5	80	37.7	0	0	---	0.00	30.086 
21:10	43.3	43.3	43.3	81	37.9	0	0	---	0.00	30.086 
21:15	43.1	43.1	43.1	81	37.7	0	0	---	0.00	30.079 
21:20	42.9	42.9	42.9	82	37.8	0	0	---	0.00	30.079 
21:25	42.8	42.8	42.8	82	37.7	0	0	---	0.00	30.079 
21:30	42.6	42.6	42.6	83	37.8	0	0	---	0.00	30.080 
21:35	42.5	42.5	42.5	83	37.7	0	0	---	0.00	30.080 
21:40	42.3	42.3	42.3	84	37.8	0	0	---	0.00	30.080 
21:45	42.2	42.2	42.2	84	37.7	0	0	---	0.00	30.079 
21:50	41.9	41.9	41.9	84	37.4	0	0	---	0.00	30.079 
21:55	41.8	41.8	41.8	85	37.6	0	0	---	0.00	30.079 
22:00	41.6	41.6	41.6	85	37.4	0	0	---	0.00	30.079 
22:05	41.5	41.5	41.5	85	37.3	0	0	---	0.00	30.079 
22:10	41.3	41.3	41.3	85	37.1	0	0	---	0.00	30.079 
22:15	41.2	41.2	41.2	86	37.3	0	0	---	0.00	30.071 
22:20	41.1	41.1	41.1	86	37.2	0	0	---	0.00	30.071 
22:25	40.9	40.9	40.9	86	37.0	0	0	---	0.00	30.071 
22:30	40.9	40.9	40.9	87	37.3	0	0	---	0.00	30.071 
22:35	40.8	40.8	40.8	87	37.2	0	0	---	0.00	30.071 
22:40	40.6	40.6	40.6	87	37.0	0	0	---	0.00	30.071 
22:45	40.6	40.6	40.6	87	37.0	0	0	---	0.00	30.070 
22:50	40.5	40.5	40.5	88	37.2	0	0	---	0.00	30.070 
22:55	40.3	40.3	40.3	88	37.0	0	0	---	0.00	30.070 
23:00	40.2	40.2	40.2	88	36.9	0	0	---	0.00	30.068 
23:05	40.2	40.2	40.2	88	36.9	0	0	---	0.00	30.068 
23:10	40.1	40.1	40.1	88	36.8	0	0	---	0.00	30.068 
23:15	40.1	40.1	40.1	88	36.8	0	0	---	0.00	30.063 
23:20	39.9	39.9	39.9	89	36.9	0	0	---	0.00	30.063 
23:25	39.9	39.9	39.9	89	36.9	0	0	---	0.00	30.063 
23:30	39.8	39.8	39.8	89	36.8	0	0	---	0.00	30.062 
23:35	39.6	39.6	39.6	89	36.6	0	0	---	0.00	30.062 
23:40	39.6	39.6	39.6	89	36.6	0	0	---	0.00	30.062 
23:45	39.5	39.5	39.5	89	36.5	0	0	---	0.00	30.061 
23:50	39.3	39.3	39.3	90	36.6	0	0	---	0.00	30.061 
23:55	39.3	39.3	39.3	90	36.6	0	0	---	0.00	30.061 

CoCoRaHS
IN-AL-39
A2 Web Hosting
Creative Commons License
GoDaddy
search engine by freefind advanced

loaded 2018-11-17 15:18:14 • last modified 2010-11-18 10:43:29
Privacy PolicyDisclaimer
• wx.awcolley.com is powered by PmWiki v.2002016 •
• all content (unless otherwise noted) © 2018 A W Colley